createdAt,value
2023-04-10T00:04:31.233Z,8.65
2023-04-10T00:09:53.617Z,8.61
2023-04-10T00:15:15.511Z,8.58
2023-04-10T00:20:37.317Z,8.52
2023-04-10T00:25:59.180Z,8.46
2023-04-10T00:31:21.054Z,8.41
2023-04-10T00:36:42.950Z,8.34
2023-04-10T00:42:04.760Z,8.29
2023-04-10T00:47:28.142Z,8.29
2023-04-10T00:52:50.077Z,8.13
2023-04-10T00:58:11.890Z,8.05
2023-04-10T01:03:34.631Z,8.02
2023-04-10T01:09:17.585Z,7.86
2023-04-10T01:14:42.193Z,7.82
2023-04-10T01:20:12.400Z,7.86
2023-04-10T01:25:48.494Z,7.86
2023-04-10T01:31:16.683Z,7.91
2023-04-10T01:36:49.410Z,7.88
2023-04-10T01:42:14.888Z,7.83
2023-04-10T01:47:37.867Z,7.47
2023-04-10T01:53:01.185Z,7.73
2023-04-10T01:58:23.049Z,7.68
2023-04-10T02:03:45.031Z,7.69
2023-04-10T02:09:23.455Z,7.65
2023-04-10T02:14:47.384Z,7.65
2023-04-10T02:20:10.689Z,7.63
2023-04-10T02:25:33.147Z,7.62
2023-04-10T02:30:55.046Z,7.68
2023-04-10T02:36:16.953Z,7.61
2023-04-10T02:41:38.883Z,7.62
2023-04-10T02:47:00.745Z,7.60
2023-04-10T02:52:22.610Z,7.55
2023-04-10T02:57:44.467Z,7.45
2023-04-10T03:03:06.521Z,7.48
2023-04-10T03:08:28.487Z,7.49
2023-04-10T03:13:50.291Z,7.40
2023-04-10T03:19:12.136Z,7.41
2023-04-10T03:24:33.967Z,7.37
2023-04-10T03:29:55.810Z,7.27
2023-04-10T03:35:17.666Z,7.27
2023-04-10T03:40:39.496Z,7.23
2023-04-10T03:46:01.343Z,7.28
2023-04-10T03:51:23.488Z,7.29
2023-04-10T03:56:45.354Z,7.27
2023-04-10T04:02:07.705Z,7.18
2023-04-10T04:07:29.748Z,7.23
2023-04-10T04:12:51.511Z,7.32
2023-04-10T04:18:13.466Z,7.52
2023-04-10T04:23:35.307Z,8.18
2023-04-10T04:28:57.159Z,9.86
2023-04-10T04:34:19.129Z,11.87
2023-04-10T04:39:40.964Z,13.61
2023-04-10T04:45:03.028Z,14.11
2023-04-10T04:50:24.887Z,15.86
2023-04-10T04:55:46.767Z,16.24
2023-04-10T05:01:08.810Z,16.98
2023-04-10T05:06:30.688Z,17.77
2023-04-10T05:11:52.649Z,18.78
2023-04-10T05:17:14.488Z,16.03
2023-04-10T05:22:36.407Z,15.56
2023-04-10T05:27:58.275Z,16.13
2023-04-10T05:33:20.116Z,16.76
2023-04-10T05:38:42.028Z,17.64
2023-04-10T05:44:03.878Z,19.71
2023-04-10T05:49:25.705Z,18.32
2023-04-10T05:54:47.565Z,16.89
2023-04-10T06:00:09.977Z,15.45
2023-04-10T06:05:31.800Z,15.10
2023-04-10T06:10:53.732Z,15.35
2023-04-10T06:16:15.646Z,15.92
2023-04-10T06:21:37.641Z,16.64
2023-04-10T06:26:59.474Z,19.03
2023-04-10T06:32:21.395Z,22.04
2023-04-10T06:37:43.342Z,25.49
2023-04-10T06:43:05.174Z,26.87
2023-04-10T06:48:27.163Z,27.43
2023-04-10T06:53:49.010Z,28.05
2023-04-10T06:59:10.838Z,29.90
2023-04-10T07:04:32.731Z,30.12
2023-04-10T07:09:54.650Z,30.63
2023-04-10T07:15:16.679Z,29.95
2023-04-10T07:20:38.529Z,30.94
2023-04-10T07:26:00.331Z,31.35
2023-04-10T07:31:22.236Z,30.91
2023-04-10T07:36:46.013Z,28.04
2023-04-10T07:42:07.961Z,27.91
2023-04-10T07:47:29.849Z,28.12
2023-04-10T07:52:51.668Z,28.52
2023-04-10T07:58:13.497Z,29.46
2023-04-10T08:03:42.590Z,28.56
2023-04-10T08:09:04.680Z,28.91
2023-04-10T08:14:26.511Z,28.63
2023-04-10T08:19:48.316Z,27.56
2023-04-10T08:25:10.365Z,28.27
2023-04-10T08:30:32.309Z,29.36
2023-04-10T08:35:54.233Z,27.39
2023-04-10T08:41:18.723Z,29.21
2023-04-10T08:46:43.939Z,27.81
2023-04-10T08:52:08.620Z,27.94
2023-04-10T08:57:30.603Z,26.38
2023-04-10T09:02:52.612Z,27.89
2023-04-10T09:08:15.391Z,26.70
2023-04-10T09:13:42.818Z,25.67
2023-04-10T09:19:06.404Z,26.73
2023-04-10T09:24:29.057Z,27.09
2023-04-10T09:29:50.857Z,26.00
2023-04-10T09:35:14.951Z,27.12
2023-04-10T09:40:36.860Z,26.79
2023-04-10T09:45:58.847Z,25.25
2023-04-10T09:51:32.079Z,25.04
2023-04-10T09:56:54.480Z,25.24
2023-04-10T10:02:18.089Z,24.19
2023-04-10T10:07:40.037Z,24.97
2023-04-10T10:13:02.687Z,22.66
2023-04-10T10:18:45.350Z,23.37
2023-04-10T10:24:09.217Z,20.69
2023-04-10T10:29:32.440Z,21.14
2023-04-10T10:34:54.498Z,19.37
2023-04-10T10:40:31.349Z,19.37
2023-04-10T10:46:05.098Z,19.73
2023-04-10T10:51:50.459Z,19.02
2023-04-10T10:57:47.735Z,18.96
2023-04-10T11:03:09.659Z,19.59
2023-04-10T11:08:34.263Z,19.73
2023-04-10T11:13:56.033Z,19.52
2023-04-10T11:19:20.760Z,19.21
2023-04-10T11:24:54.459Z,18.65
2023-04-10T11:30:30.262Z,19.41
2023-04-10T11:35:52.404Z,18.84
2023-04-10T11:41:14.290Z,19.58
2023-04-10T11:46:42.058Z,18.84
2023-04-10T11:52:03.958Z,18.37
2023-04-10T11:57:35.145Z,18.58
2023-04-10T12:02:57.311Z,18.54
2023-04-10T12:08:19.327Z,19.51
2023-04-10T12:13:41.162Z,20.28
2023-04-10T12:19:03.133Z,19.20
2023-04-10T12:24:42.010Z,19.61
2023-04-10T12:30:07.765Z,20.00
2023-04-10T12:35:40.273Z,19.56
2023-04-10T12:41:03.263Z,19.37
2023-04-10T12:46:28.366Z,19.32
2023-04-10T12:51:52.123Z,19.46
2023-04-10T12:57:26.265Z,19.61
2023-04-10T13:02:49.262Z,19.36
2023-04-10T13:08:11.307Z,18.62
2023-04-10T13:13:33.125Z,18.05
2023-04-10T13:18:55.063Z,17.94
2023-04-10T13:24:17.043Z,16.86
2023-04-10T13:29:42.925Z,17.18
2023-04-10T13:35:05.345Z,16.64
2023-04-10T13:40:27.477Z,16.38
2023-04-10T13:45:49.302Z,16.06
2023-04-10T13:51:11.138Z,15.71
2023-04-10T13:56:32.923Z,15.80
2023-04-10T14:01:54.931Z,16.19
2023-04-10T14:07:17.911Z,16.66
2023-04-10T14:12:39.696Z,16.76
2023-04-10T14:18:01.535Z,16.99
2023-04-10T14:23:23.377Z,17.06
2023-04-10T14:28:45.196Z,16.68
2023-04-10T14:34:07.015Z,16.36
2023-04-10T14:39:28.851Z,16.44
2023-04-10T14:44:50.672Z,16.76
2023-04-10T14:50:12.770Z,16.34
2023-04-10T14:55:34.615Z,16.59
2023-04-10T15:00:56.468Z,16.84
2023-04-10T15:06:18.276Z,16.74
2023-04-10T15:11:40.122Z,16.81
2023-04-10T15:17:01.984Z,17.00
2023-04-10T15:22:23.921Z,17.20
2023-04-10T15:27:45.775Z,17.35
2023-04-10T15:33:07.638Z,17.46
2023-04-10T15:38:29.783Z,17.42
2023-04-10T15:43:51.637Z,17.43
2023-04-10T15:49:16.378Z,17.33
2023-04-10T15:54:42.277Z,17.27
2023-04-10T16:00:04.813Z,17.34
2023-04-10T16:05:26.905Z,17.16
2023-04-10T16:10:48.705Z,16.93
2023-04-10T16:16:15.021Z,16.79
2023-04-10T16:21:36.978Z,16.39
2023-04-10T16:26:58.804Z,16.15
2023-04-10T16:32:20.871Z,16.17
2023-04-10T16:37:42.706Z,15.95
2023-04-10T16:43:04.523Z,15.76
2023-04-10T16:48:26.531Z,15.68
2023-04-10T16:53:48.337Z,15.44
2023-04-10T16:59:10.213Z,15.31
2023-04-10T17:04:32.155Z,15.19
2023-04-10T17:09:53.995Z,14.97
2023-04-10T17:15:15.931Z,14.81
2023-04-10T17:20:37.864Z,14.81
2023-04-10T17:25:59.722Z,14.74
2023-04-10T17:31:21.704Z,14.57
2023-04-10T17:36:43.637Z,14.48
2023-04-10T17:42:05.555Z,14.30
2023-04-10T17:47:27.492Z,14.30
2023-04-10T17:52:49.517Z,14.26
2023-04-10T17:58:11.590Z,14.14
2023-04-10T18:03:33.583Z,14.07
2023-04-10T18:08:56.934Z,13.93
2023-04-10T18:14:19.812Z,13.85
2023-04-10T18:19:41.679Z,13.76
2023-04-10T18:25:03.703Z,13.59
2023-04-10T18:30:25.604Z,13.53
2023-04-10T18:35:47.489Z,13.40
2023-04-10T18:41:09.296Z,13.31
2023-04-10T18:46:31.269Z,13.37
2023-04-10T18:51:53.094Z,13.31
2023-04-10T18:57:14.922Z,13.29
2023-04-10T19:02:36.916Z,13.31
2023-04-10T19:08:04.083Z,13.25
2023-04-10T19:13:26.730Z,13.29
2023-04-10T19:18:48.841Z,13.24
2023-04-10T19:24:10.670Z,13.14
2023-04-10T19:29:32.565Z,13.15
2023-04-10T19:34:54.413Z,13.04
2023-04-10T19:40:18.387Z,12.85
2023-04-10T19:45:40.222Z,12.82
2023-04-10T19:51:05.504Z,12.79
2023-04-10T19:56:27.346Z,12.69
2023-04-10T20:01:49.389Z,12.48
2023-04-10T20:07:11.291Z,12.29
2023-04-10T20:12:33.216Z,12.15
2023-04-10T20:17:55.050Z,12.03
2023-04-10T20:23:16.946Z,11.93
2023-04-10T20:28:39.042Z,11.88
2023-04-10T20:34:00.885Z,11.68
2023-04-10T20:39:23.004Z,11.64
2023-04-10T20:44:44.917Z,11.65
2023-04-10T20:50:07.819Z,11.52
2023-04-10T20:55:29.690Z,11.53
2023-04-10T21:00:52.614Z,11.50
2023-04-10T21:06:14.517Z,11.44
2023-04-10T21:11:36.322Z,11.40
2023-04-10T21:16:58.204Z,11.26
2023-04-10T21:22:20.083Z,11.19
2023-04-10T21:27:42.019Z,11.15
2023-04-10T21:33:03.861Z,10.99
2023-04-10T21:38:25.745Z,10.97
2023-04-10T21:43:47.588Z,10.92
2023-04-10T21:49:09.425Z,10.84
2023-04-10T21:54:31.258Z,10.63
2023-04-10T21:59:53.038Z,10.64
2023-04-10T22:05:14.868Z,10.45
2023-04-10T22:10:36.821Z,10.41
2023-04-10T22:16:00.652Z,10.46
2023-04-10T22:21:22.459Z,10.50
2023-04-10T22:26:44.304Z,10.32
2023-04-10T22:32:06.200Z,10.46
2023-04-10T22:37:28.117Z,10.28
2023-04-10T22:42:50.220Z,10.15
2023-04-10T22:48:12.116Z,9.99
2023-04-10T22:53:33.951Z,9.94
2023-04-10T22:58:55.938Z,9.84
2023-04-10T23:04:17.887Z,9.60
2023-04-10T23:09:39.778Z,9.47
2023-04-10T23:15:01.667Z,9.39
2023-04-10T23:20:24.306Z,9.25
2023-04-10T23:25:46.161Z,9.28
2023-04-10T23:31:08.276Z,9.21
2023-04-10T23:36:30.103Z,9.15
2023-04-10T23:41:51.927Z,9.08
2023-04-10T23:47:13.755Z,8.93
2023-04-10T23:52:35.623Z,8.98
2023-04-10T23:57:57.431Z,8.96
